Main page
METAR-TAF:

METAR-TAF

Airports :

Čáslav, Czech Republic

latitude: 49-56-23N, longitude: 15-22-55E, elevation: 242 m

Current weather observation

The report was made 16 minutes ago, at 22:00 UTC
Wind 3 kt from the West/Southwest
Temperature 17°C
Humidity 77%
Pressure 1019 hPa
Visibility 10 km or more
no clouds below 1500 m and no cumulonimbus

METAR: LKCV 192200Z 25003KT CAVOK 17/13 Q1019 RMK BLACK

Time: 00:16 (22:16 UTC)


TAF: missing

Weather observations and forecasts of more than 4000 airports (METAR and TAF reports).

The available stations are represented by yellow and red dots on the map.

Hover mouse over dot to see the name of the station.

Then click to see weather observations and forecasts.

To change the map : click on the green buttons with a black cross to zoom in, on the green button with a dash to zoom out, or on the green arrows for adjacent maps.


METAR-TAF: